sensor_id;sensor_type;location;lat;lon;timestamp;pressure;altitude;pressure_sealevel;temperature
15544;BMP180;7873;52.230;12.856;2022-12-11T00:01:33;100336.47;;;27.78
15544;BMP180;7873;52.230;12.856;2022-12-11T00:03:59;100338.34;;;27.78
15544;BMP180;7873;52.230;12.856;2022-12-11T00:06:26;100334.41;;;27.74
15544;BMP180;7873;52.230;12.856;2022-12-11T00:08:54;100342.53;;;27.67
15544;BMP180;7873;52.230;12.856;2022-12-11T00:11:21;100338.41;;;27.65
15544;BMP180;7873;52.230;12.856;2022-12-11T00:13:49;100339.47;;;27.57
15544;BMP180;7873;52.230;12.856;2022-12-11T00:16:16;100335.75;;;27.52
15544;BMP180;7873;52.230;12.856;2022-12-11T00:18:44;100331.19;;;27.52
15544;BMP180;7873;52.230;12.856;2022-12-11T00:21:12;100318.94;;;27.43
15544;BMP180;7873;52.230;12.856;2022-12-11T00:23:39;100333.50;;;27.42
15544;BMP180;7873;52.230;12.856;2022-12-11T00:26:09;100327.50;;;27.40
15544;BMP180;7873;52.230;12.856;2022-12-11T00:28:35;100330.63;;;27.38
15544;BMP180;7873;52.230;12.856;2022-12-11T00:31:03;100328.72;;;27.38
15544;BMP180;7873;52.230;12.856;2022-12-11T00:33:30;100325.22;;;27.38
15544;BMP180;7873;52.230;12.856;2022-12-11T00:35:58;100323.53;;;27.43
15544;BMP180;7873;52.230;12.856;2022-12-11T00:38:25;100322.50;;;27.44
15544;BMP180;7873;52.230;12.856;2022-12-11T00:40:52;100325.56;;;27.47
15544;BMP180;7873;52.230;12.856;2022-12-11T00:43:19;100327.22;;;27.48
15544;BMP180;7873;52.230;12.856;2022-12-11T00:45:46;100327.91;;;27.44
15544;BMP180;7873;52.230;12.856;2022-12-11T00:48:13;100321.88;;;27.42
15544;BMP180;7873;52.230;12.856;2022-12-11T00:50:39;100328.72;;;27.38
15544;BMP180;7873;52.230;12.856;2022-12-11T00:53:07;100327.13;;;27.31
15544;BMP180;7873;52.230;12.856;2022-12-11T00:55:36;100334.81;;;27.27
15544;BMP180;7873;52.230;12.856;2022-12-11T00:58:03;100335.06;;;27.19
15544;BMP180;7873;52.230;12.856;2022-12-11T01:00:30;100320.09;;;27.17
15544;BMP180;7873;52.230;12.856;2022-12-11T01:02:57;100329.88;;;27.11
15544;BMP180;7873;52.230;12.856;2022-12-11T01:05:24;100328.00;;;27.05
15544;BMP180;7873;52.230;12.856;2022-12-11T01:07:50;100324.28;;;27.00
15544;BMP180;7873;52.230;12.856;2022-12-11T01:10:18;100328.69;;;26.94
15544;BMP180;7873;52.230;12.856;2022-12-11T01:12:52;100326.81;;;26.88
15544;BMP180;7873;52.230;12.856;2022-12-11T01:15:20;100321.81;;;26.85
15544;BMP180;7873;52.230;12.856;2022-12-11T01:17:48;100324.34;;;26.80
15544;BMP180;7873;52.230;12.856;2022-12-11T01:20:15;100327.66;;;26.76
15544;BMP180;7873;52.230;12.856;2022-12-11T01:22:42;100331.63;;;26.73
15544;BMP180;7873;52.230;12.856;2022-12-11T01:25:09;100331.22;;;26.70
15544;BMP180;7873;52.230;12.856;2022-12-11T01:27:38;100334.53;;;26.65
15544;BMP180;7873;52.230;12.856;2022-12-11T01:30:06;100328.53;;;26.63
15544;BMP180;7873;52.230;12.856;2022-12-11T01:32:34;100322.72;;;26.60
15544;BMP180;7873;52.230;12.856;2022-12-11T01:35:02;100327.50;;;26.58
15544;BMP180;7873;52.230;12.856;2022-12-11T01:37:28;100327.72;;;26.56
15544;BMP180;7873;52.230;12.856;2022-12-11T01:39:55;100322.31;;;26.56
15544;BMP180;7873;52.230;12.856;2022-12-11T01:42:22;100324.38;;;26.54
15544;BMP180;7873;52.230;12.856;2022-12-11T01:45:29;100328.53;;;26.57
15544;BMP180;7873;52.230;12.856;2022-12-11T01:48:00;100331.88;;;26.59
15544;BMP180;7873;52.230;12.856;2022-12-11T01:50:30;100337.03;;;26.60
15544;BMP180;7873;52.230;12.856;2022-12-11T01:52:58;100335.81;;;26.63
15544;BMP180;7873;52.230;12.856;2022-12-11T01:55:25;100322.50;;;26.61
15544;BMP180;7873;52.230;12.856;2022-12-11T01:57:52;100318.97;;;26.61
15544;BMP180;7873;52.230;12.856;2022-12-11T02:00:20;100309.22;;;26.60
15544;BMP180;7873;52.230;12.856;2022-12-11T02:02:48;100313.78;;;26.59
15544;BMP180;7873;52.230;12.856;2022-12-11T02:05:15;100308.81;;;26.56
15544;BMP180;7873;52.230;12.856;2022-12-11T02:07:45;100309.22;;;26.53
15544;BMP180;7873;52.230;12.856;2022-12-11T02:10:13;100312.13;;;26.52
15544;BMP180;7873;52.230;12.856;2022-12-11T02:12:50;100304.00;;;26.45
15544;BMP180;7873;52.230;12.856;2022-12-11T02:15:24;100314.16;;;26.43
15544;BMP180;7873;52.230;12.856;2022-12-11T02:18:02;100308.38;;;26.40
15544;BMP180;7873;52.230;12.856;2022-12-11T02:20:37;100312.31;;;26.37
15544;BMP180;7873;52.230;12.856;2022-12-11T02:23:25;100320.84;;;26.34
15544;BMP180;7873;52.230;12.856;2022-12-11T02:26:05;100315.84;;;26.31
15544;BMP180;7873;52.230;12.856;2022-12-11T02:28:37;100313.59;;;26.28
15544;BMP180;7873;52.230;12.856;2022-12-11T02:31:09;100314.81;;;26.26
15544;BMP180;7873;52.230;12.856;2022-12-11T02:33:40;100312.34;;;26.24
15544;BMP180;7873;52.230;12.856;2022-12-11T02:38:38;100305.69;;;26.14
15544;BMP180;7873;52.230;12.856;2022-12-11T02:41:08;100301.53;;;26.11
15544;BMP180;7873;52.230;12.856;2022-12-11T02:43:38;100308.56;;;26.06
15544;BMP180;7873;52.230;12.856;2022-12-11T02:46:06;100300.09;;;26.02
15544;BMP180;7873;52.230;12.856;2022-12-11T02:48:33;100301.75;;;26.03
15544;BMP180;7873;52.230;12.856;2022-12-11T02:51:03;100305.88;;;26.06
15544;BMP180;7873;52.230;12.856;2022-12-11T02:53:31;100308.81;;;26.04
15544;BMP180;7873;52.230;12.856;2022-12-11T02:56:07;100302.38;;;26.05
15544;BMP180;7873;52.230;12.856;2022-12-11T02:58:38;100301.53;;;26.05
15544;BMP180;7873;52.230;12.856;2022-12-11T03:01:09;100293.41;;;26.05
15544;BMP180;7873;52.230;12.856;2022-12-11T03:03:36;100300.47;;;26.06
15544;BMP180;7873;52.230;12.856;2022-12-11T03:06:03;100295.09;;;26.06
15544;BMP180;7873;52.230;12.856;2022-12-11T03:08:30;100302.13;;;26.07
15544;BMP180;7873;52.230;12.856;2022-12-11T03:10:57;100299.44;;;26.07
15544;BMP180;7873;52.230;12.856;2022-12-11T03:13:24;100301.09;;;26.08
15544;BMP180;7873;52.230;12.856;2022-12-11T03:16:03;100304.84;;;26.07
15544;BMP180;7873;52.230;12.856;2022-12-11T03:18:35;100307.13;;;26.03
15544;BMP180;7873;52.230;12.856;2022-12-11T03:21:07;100307.34;;;26.02
15544;BMP180;7873;52.230;12.856;2022-12-11T03:23:43;100309.59;;;25.98
15544;BMP180;7873;52.230;12.856;2022-12-11T03:26:14;100316.44;;;25.94
15544;BMP180;7873;52.230;12.856;2022-12-11T03:28:44;100316.47;;;25.88
15544;BMP180;7873;52.230;12.856;2022-12-11T03:31:18;100315.63;;;25.87
15544;BMP180;7873;52.230;12.856;2022-12-11T03:33:51;100309.38;;;25.87
15544;BMP180;7873;52.230;12.856;2022-12-11T03:36:22;100308.09;;;25.83
15544;BMP180;7873;52.230;12.856;2022-12-11T03:38:53;100303.13;;;25.80
15544;BMP180;7873;52.230;12.856;2022-12-11T03:41:24;100303.72;;;25.75
15544;BMP180;7873;52.230;12.856;2022-12-11T03:43:52;100307.47;;;25.74
15544;BMP180;7873;52.230;12.856;2022-12-11T03:46:24;100307.06;;;25.71
15544;BMP180;7873;52.230;12.856;2022-12-11T03:48:55;100308.91;;;25.70
15544;BMP180;7873;52.230;12.856;2022-12-11T03:51:24;100307.47;;;25.68
15544;BMP180;7873;52.230;12.856;2022-12-11T03:53:52;100297.50;;;25.68
15544;BMP180;7873;52.230;12.856;2022-12-11T03:56:19;100300.19;;;25.68
15544;BMP180;7873;52.230;12.856;2022-12-11T03:58:47;100298.53;;;25.67
15544;BMP180;7873;52.230;12.856;2022-12-11T04:01:14;100298.53;;;25.67
15544;BMP180;7873;52.230;12.856;2022-12-11T04:03:42;100300.41;;;25.67
15544;BMP180;7873;52.230;12.856;2022-12-11T04:06:09;100305.81;;;25.67
15544;BMP180;7873;52.230;12.856;2022-12-11T04:08:36;100296.06;;;25.66
15544;BMP180;7873;52.230;12.856;2022-12-11T04:11:03;100295.03;;;25.67
15544;BMP180;7873;52.230;12.856;2022-12-11T04:13:47;100298.75;;;25.66
15544;BMP180;7873;52.230;12.856;2022-12-11T04:16:34;100311.41;;;25.65
15544;BMP180;7873;52.230;12.856;2022-12-11T04:19:02;100309.13;;;25.62
15544;BMP180;7873;52.230;12.856;2022-12-11T04:21:46;100313.03;;;25.60
15544;BMP180;7873;52.230;12.856;2022-12-11T04:24:30;100304.53;;;25.57
15544;BMP180;7873;52.230;12.856;2022-12-11T04:26:57;100303.91;;;25.55
15544;BMP180;7873;52.230;12.856;2022-12-11T04:29:23;100301.41;;;25.53
15544;BMP180;7873;52.230;12.856;2022-12-11T04:31:50;100308.47;;;25.54
15544;BMP180;7873;52.230;12.856;2022-12-11T04:34:18;100309.06;;;25.50
15544;BMP180;7873;52.230;12.856;2022-12-11T04:36:45;100302.84;;;25.49
15544;BMP180;7873;52.230;12.856;2022-12-11T04:39:12;100301.19;;;25.48
15544;BMP180;7873;52.230;12.856;2022-12-11T04:41:39;100313.00;;;25.47
15544;BMP180;7873;52.230;12.856;2022-12-11T04:44:06;100312.59;;;25.44
15544;BMP180;7873;52.230;12.856;2022-12-11T04:46:33;100312.78;;;25.42
15544;BMP180;7873;52.230;12.856;2022-12-11T04:49:00;100305.94;;;25.40
15544;BMP180;7873;52.230;12.856;2022-12-11T04:51:28;100310.69;;;25.38
15544;BMP180;7873;52.230;12.856;2022-12-11T04:53:55;100316.09;;;25.38
15544;BMP180;7873;52.230;12.856;2022-12-11T04:56:23;100315.66;;;25.34
15544;BMP180;7873;52.230;12.856;2022-12-11T04:58:50;100316.69;;;25.33
15544;BMP180;7873;52.230;12.856;2022-12-11T05:01:19;100326.66;;;25.33
15544;BMP180;7873;52.230;12.856;2022-12-11T05:03:47;100317.94;;;25.31
15544;BMP180;7873;52.230;12.856;2022-12-11T05:06:14;100321.44;;;25.31
15544;BMP180;7873;52.230;12.856;2022-12-11T05:08:42;100321.44;;;25.31
15544;BMP180;7873;52.230;12.856;2022-12-11T05:11:11;100307.97;;;25.31
15544;BMP180;7873;52.230;12.856;2022-12-11T05:13:38;100315.44;;;25.29
15544;BMP180;7873;52.230;12.856;2022-12-11T05:16:06;100311.72;;;25.30
15544;BMP180;7873;52.230;12.856;2022-12-11T05:18:33;100316.28;;;25.30
15544;BMP180;7873;52.230;12.856;2022-12-11T05:21:02;100310.88;;;25.30
15544;BMP180;7873;52.230;12.856;2022-12-11T05:23:29;100312.94;;;25.28
15544;BMP180;7873;52.230;12.856;2022-12-11T05:25:59;100309.41;;;25.27
15544;BMP180;7873;52.230;12.856;2022-12-11T05:28:28;100293.66;;;25.24
15544;BMP180;7873;52.230;12.856;2022-12-11T05:30:55;100307.31;;;25.23
15544;BMP180;7873;52.230;12.856;2022-12-11T05:33:22;100299.22;;;25.23
15544;BMP180;7873;52.230;12.856;2022-12-11T05:35:49;100301.53;;;25.19
15544;BMP180;7873;52.230;12.856;2022-12-11T05:38:16;100295.72;;;25.22
15544;BMP180;7873;52.230;12.856;2022-12-11T05:40:43;100286.38;;;25.18
15544;BMP180;7873;52.230;12.856;2022-12-11T05:43:11;100284.88;;;25.16
15544;BMP180;7873;52.230;12.856;2022-12-11T05:45:38;100288.78;;;25.13
15544;BMP180;7873;52.230;12.856;2022-12-11T05:48:05;100283.84;;;25.17
15544;BMP180;7873;52.230;12.856;2022-12-11T05:50:33;100277.03;;;25.21
15544;BMP180;7873;52.230;12.856;2022-12-11T05:53:00;100276.22;;;25.27
15544;BMP180;7873;52.230;12.856;2022-12-11T05:55:28;100283.09;;;25.29
15544;BMP180;7873;52.230;12.856;2022-12-11T05:57:55;100278.34;;;25.31
15544;BMP180;7873;52.230;12.856;2022-12-11T06:00:24;100258.88;;;25.36
15544;BMP180;7873;52.230;12.856;2022-12-11T06:02:51;100262.19;;;25.44
15544;BMP180;7873;52.230;12.856;2022-12-11T06:05:19;100254.09;;;25.51
15544;BMP180;7873;52.230;12.856;2022-12-11T06:07:46;100257.66;;;25.64
15544;BMP180;7873;52.230;12.856;2022-12-11T06:10:13;100257.69;;;25.77
15544;BMP180;7873;52.230;12.856;2022-12-11T06:12:40;100264.78;;;25.91
15544;BMP180;7873;52.230;12.856;2022-12-11T06:15:08;100257.13;;;26.07
15544;BMP180;7873;52.230;12.856;2022-12-11T06:17:37;100264.16;;;26.21
15544;BMP180;7873;52.230;12.856;2022-12-11T06:20:05;100255.84;;;26.36
15544;BMP180;7873;52.230;12.856;2022-12-11T06:22:31;100258.72;;;26.54
15544;BMP180;7873;52.230;12.856;2022-12-11T06:24:58;100260.56;;;26.66
15544;BMP180;7873;52.230;12.856;2022-12-11T06:27:25;100246.25;;;26.72
15544;BMP180;7873;52.230;12.856;2022-12-11T06:29:51;100252.03;;;26.76
15544;BMP180;7873;52.230;12.856;2022-12-11T06:32:18;100248.69;;;26.80
15544;BMP180;7873;52.230;12.856;2022-12-11T06:34:46;100256.00;;;26.67
15544;BMP180;7873;52.230;12.856;2022-12-11T06:37:13;100244.59;;;26.45
15544;BMP180;7873;52.230;12.856;2022-12-11T06:39:39;100254.81;;;26.30
15544;BMP180;7873;52.230;12.856;2022-12-11T06:42:06;100252.97;;;26.24
15544;BMP180;7873;52.230;12.856;2022-12-11T06:44:33;100258.56;;;26.23
15544;BMP180;7873;52.230;12.856;2022-12-11T06:46:59;100259.78;;;26.20
15544;BMP180;7873;52.230;12.856;2022-12-11T06:49:26;100266.22;;;26.19
15544;BMP180;7873;52.230;12.856;2022-12-11T06:51:54;100268.09;;;26.19
15544;BMP180;7873;52.230;12.856;2022-12-11T06:56:51;100273.31;;;26.14
15544;BMP180;7873;52.230;12.856;2022-12-11T06:59:17;100274.53;;;26.18
15544;BMP180;7873;52.230;12.856;2022-12-11T07:01:44;100281.81;;;26.24
15544;BMP180;7873;52.230;12.856;2022-12-11T07:04:11;100288.00;;;26.31
15544;BMP180;7873;52.230;12.856;2022-12-11T07:06:37;100278.69;;;26.40
15544;BMP180;7873;52.230;12.856;2022-12-11T07:09:05;100277.00;;;26.45
15544;BMP180;7873;52.230;12.856;2022-12-11T07:11:32;100275.59;;;26.49
15544;BMP180;7873;52.230;12.856;2022-12-11T07:13:59;100266.84;;;26.54
15544;BMP180;7873;52.230;12.856;2022-12-11T07:16:26;100277.66;;;26.47
15544;BMP180;7873;52.230;12.856;2022-12-11T07:18:53;100278.88;;;26.45
15544;BMP180;7873;52.230;12.856;2022-12-11T07:21:20;100277.03;;;26.39
15544;BMP180;7873;52.230;12.856;2022-12-11T07:23:48;100273.91;;;26.42
15544;BMP180;7873;52.230;12.856;2022-12-11T07:26:19;100268.69;;;26.40
15544;BMP180;7873;52.230;12.856;2022-12-11T07:28:45;100279.31;;;26.48
15544;BMP180;7873;52.230;12.856;2022-12-11T07:31:15;100283.47;;;26.51
15544;BMP180;7873;52.230;12.856;2022-12-11T07:33:42;100292.19;;;26.53
15544;BMP180;7873;52.230;12.856;2022-12-11T07:36:10;100285.97;;;26.52
15544;BMP180;7873;52.230;12.856;2022-12-11T07:38:37;100295.09;;;26.58
15544;BMP180;7873;52.230;12.856;2022-12-11T07:41:06;100286.78;;;26.46
15544;BMP180;7873;52.230;12.856;2022-12-11T07:43:35;100287.81;;;26.00
15544;BMP180;7873;52.230;12.856;2022-12-11T07:46:02;100285.03;;;25.61
15544;BMP180;7873;52.230;12.856;2022-12-11T07:48:29;100296.25;;;25.64
15544;BMP180;7873;52.230;12.856;2022-12-11T07:51:06;100303.16;;;25.86
15544;BMP180;7873;52.230;12.856;2022-12-11T07:53:33;100302.13;;;26.07
15544;BMP180;7873;52.230;12.856;2022-12-11T07:56:00;100295.28;;;26.24
15544;BMP180;7873;52.230;12.856;2022-12-11T07:58:26;100288.88;;;26.38
15544;BMP180;7873;52.230;12.856;2022-12-11T08:00:55;100298.22;;;26.48
15544;BMP180;7873;52.230;12.856;2022-12-11T08:03:22;100294.88;;;26.53
15544;BMP180;7873;52.230;12.856;2022-12-11T08:05:50;100301.13;;;26.53
15544;BMP180;7873;52.230;12.856;2022-12-11T08:08:18;100302.78;;;26.48
15544;BMP180;7873;52.230;12.856;2022-12-11T08:10:45;100299.66;;;26.51
15544;BMP180;7873;52.230;12.856;2022-12-11T08:13:11;100299.25;;;26.54
15544;BMP180;7873;52.230;12.856;2022-12-11T08:15:38;100303.81;;;26.53
15544;BMP180;7873;52.230;12.856;2022-12-11T08:18:06;100304.63;;;26.21
15544;BMP180;7873;52.230;12.856;2022-12-11T08:20:33;100288.25;;;26.03
15544;BMP180;7873;52.230;12.856;2022-12-11T08:22:59;100297.56;;;26.01
15544;BMP180;7873;52.230;12.856;2022-12-11T08:25:26;100290.09;;;25.96
15544;BMP180;7873;52.230;12.856;2022-12-11T08:27:53;100296.31;;;25.90
15544;BMP180;7873;52.230;12.856;2022-12-11T08:30:19;100304.22;;;25.92
15544;BMP180;7873;52.230;12.856;2022-12-11T08:32:46;100306.94;;;25.92
15544;BMP180;7873;52.230;12.856;2022-12-11T08:35:14;100289.00;;;25.71
15544;BMP180;7873;52.230;12.856;2022-12-11T08:37:41;100292.34;;;25.67
15544;BMP180;7873;52.230;12.856;2022-12-11T08:40:08;100287.97;;;25.79
15544;BMP180;7873;52.230;12.856;2022-12-11T08:42:36;100295.91;;;25.87
15544;BMP180;7873;52.230;12.856;2022-12-11T08:45:04;100293.22;;;25.93
15544;BMP180;7873;52.230;12.856;2022-12-11T08:47:31;100293.22;;;25.93
15544;BMP180;7873;52.230;12.856;2022-12-11T08:49:58;100294.25;;;25.99
15544;BMP180;7873;52.230;12.856;2022-12-11T08:52:26;100296.13;;;26.05
15544;BMP180;7873;52.230;12.856;2022-12-11T08:54:52;100291.78;;;26.10
15544;BMP180;7873;52.230;12.856;2022-12-11T08:57:19;100296.34;;;26.16
15544;BMP180;7873;52.230;12.856;2022-12-11T08:59:46;100298.22;;;26.22
15544;BMP180;7873;52.230;12.856;2022-12-11T09:02:12;100304.88;;;26.26
15544;BMP180;7873;52.230;12.856;2022-12-11T09:04:39;100304.44;;;26.23
15544;BMP180;7873;52.230;12.856;2022-12-11T09:07:06;100300.09;;;26.28
15544;BMP180;7873;52.230;12.856;2022-12-11T09:09:34;100304.84;;;26.07
15544;BMP180;7873;52.230;12.856;2022-12-11T09:12:01;100302.09;;;25.81
15544;BMP180;7873;52.230;12.856;2022-12-11T09:14:29;100295.28;;;25.91
15544;BMP180;7873;52.230;12.856;2022-12-11T09:16:55;100304.22;;;26.11
15544;BMP180;7873;52.230;12.856;2022-12-11T09:19:22;100300.50;;;26.19
15544;BMP180;7873;52.230;12.856;2022-12-11T09:21:49;100301.09;;;26.08
15544;BMP180;7873;52.230;12.856;2022-12-11T09:24:15;100308.81;;;26.04
15544;BMP180;7873;52.230;12.856;2022-12-11T09:26:44;100303.41;;;25.98
15544;BMP180;7873;52.230;12.856;2022-12-11T09:29:12;100293.41;;;26.05
15544;BMP180;7873;52.230;12.856;2022-12-11T09:31:38;100285.75;;;26.02
15544;BMP180;7873;52.230;12.856;2022-12-11T09:34:07;100282.44;;;26.06
15544;BMP180;7873;52.230;12.856;2022-12-11T09:36:38;100279.13;;;26.04
15544;BMP180;7873;52.230;12.856;2022-12-11T09:39:08;100273.91;;;26.03
15544;BMP180;7873;52.230;12.856;2022-12-11T09:41:37;100276.22;;;25.99
15544;BMP180;7873;52.230;12.856;2022-12-11T09:44:33;100275.38;;;25.99
15544;BMP180;7873;52.230;12.856;2022-12-11T09:47:16;100276.84;;;26.01
15544;BMP180;7873;52.230;12.856;2022-12-11T09:49:46;100274.13;;;26.01
15544;BMP180;7873;52.230;12.856;2022-12-11T09:52:17;100279.31;;;26.03
15544;BMP180;7873;52.230;12.856;2022-12-11T09:54:48;100285.53;;;26.10
15544;BMP180;7873;52.230;12.856;2022-12-11T09:57:27;100274.94;;;26.41
15544;BMP180;7873;52.230;12.856;2022-12-11T10:00:06;100277.81;;;26.72
15544;BMP180;7873;52.230;12.856;2022-12-11T10:02:45;100280.59;;;27.03
15544;BMP180;7873;52.230;12.856;2022-12-11T10:05:20;100277.78;;;27.35
15544;BMP180;7873;52.230;12.856;2022-12-11T10:07:55;100267.88;;;27.60
15544;BMP180;7873;52.230;12.856;2022-12-11T10:10:34;100270.94;;;27.76
15544;BMP180;7873;52.230;12.856;2022-12-11T10:13:13;100263.47;;;27.65
15544;BMP180;7873;52.230;12.856;2022-12-11T10:15:48;100263.50;;;27.22
15544;BMP180;7873;52.230;12.856;2022-12-11T10:18:19;100263.94;;;27.25
15544;BMP180;7873;52.230;12.856;2022-12-11T10:20:48;100260.97;;;27.33
15544;BMP180;7873;52.230;12.856;2022-12-11T10:23:19;100258.53;;;27.56
15544;BMP180;7873;52.230;12.856;2022-12-11T10:25:51;100251.88;;;27.58
15544;BMP180;7873;52.230;12.856;2022-12-11T10:28:20;100252.19;;;27.75
15544;BMP180;7873;52.230;12.856;2022-12-11T10:30:54;100255.88;;;27.87
15544;BMP180;7873;52.230;12.856;2022-12-11T10:33:29;100261.00;;;27.95
15544;BMP180;7873;52.230;12.856;2022-12-11T10:35:59;100262.31;;;28.10
15544;BMP180;7873;52.230;12.856;2022-12-11T10:38:27;100258.22;;;28.26
15544;BMP180;7873;52.230;12.856;2022-12-11T10:40:59;100254.59;;;28.38
15544;BMP180;7873;52.230;12.856;2022-12-11T10:43:34;100246.19;;;28.46
15544;BMP180;7873;52.230;12.856;2022-12-11T10:46:14;100257.19;;;28.51
15544;BMP180;7873;52.230;12.856;2022-12-11T10:48:48;100242.72;;;28.57
15544;BMP180;7873;52.230;12.856;2022-12-11T10:51:20;100238.75;;;28.60
15544;BMP180;7873;52.230;12.856;2022-12-11T10:53:49;100230.91;;;28.34
15544;BMP180;7873;52.230;12.856;2022-12-11T10:56:24;100234.91;;;28.25
15544;BMP180;7873;52.230;12.856;2022-12-11T10:58:51;100234.59;;;28.39
15544;BMP180;7873;52.230;12.856;2022-12-11T11:01:21;100236.47;;;28.39
15544;BMP180;7873;52.230;12.856;2022-12-11T11:03:54;100232.56;;;28.35
15544;BMP180;7873;52.230;12.856;2022-12-11T11:06:23;100230.91;;;28.34
15544;BMP180;7873;52.230;12.856;2022-12-11T11:08:52;100227.75;;;28.37
15544;BMP180;7873;52.230;12.856;2022-12-11T11:11:22;100224.53;;;28.46
15544;BMP180;7873;52.230;12.856;2022-12-11T11:13:50;100223.16;;;28.55
15544;BMP180;7873;52.230;12.856;2022-12-11T11:16:20;100212.88;;;28.64
15544;BMP180;7873;52.230;12.856;2022-12-11T11:18:53;100215.50;;;28.70
15544;BMP180;7873;52.230;12.856;2022-12-11T11:21:23;100218.22;;;28.70
15544;BMP180;7873;52.230;12.856;2022-12-11T11:23:52;100211.88;;;28.76
15544;BMP180;7873;52.230;12.856;2022-12-11T11:26:20;100213.31;;;28.79
15544;BMP180;7873;52.230;12.856;2022-12-11T11:28:48;100208.50;;;28.81
15544;BMP180;7873;52.230;12.856;2022-12-11T11:31:16;100213.53;;;28.77
15544;BMP180;7873;52.230;12.856;2022-12-11T11:33:51;100206.47;;;28.76
15544;BMP180;7873;52.230;12.856;2022-12-11T11:36:22;100205.41;;;28.77
15544;BMP180;7873;52.230;12.856;2022-12-11T11:38:59;100199.38;;;28.75
15544;BMP180;7873;52.230;12.856;2022-12-11T11:41:32;100191.25;;;28.75
15544;BMP180;7873;52.230;12.856;2022-12-11T11:44:01;100193.72;;;28.77
15544;BMP180;7873;52.230;12.856;2022-12-11T11:46:33;100191.94;;;28.89
15544;BMP180;7873;52.230;12.856;2022-12-11T11:49:06;100189.63;;;28.92
15544;BMP180;7873;52.230;12.856;2022-12-11T11:51:42;100189.50;;;28.99
15544;BMP180;7873;52.230;12.856;2022-12-11T11:54:19;100180.22;;;29.06
15544;BMP180;7873;52.230;12.856;2022-12-11T11:56:50;100181.44;;;29.10
15544;BMP180;7873;52.230;12.856;2022-12-11T11:59:21;100174.34;;;28.62
15544;BMP180;7873;52.230;12.856;2022-12-11T12:01:50;100170.75;;;27.83
15544;BMP180;7873;52.230;12.856;2022-12-11T12:04:21;100170.66;;;27.40
15544;BMP180;7873;52.230;12.856;2022-12-11T12:07:03;100174.47;;;27.57
15544;BMP180;7873;52.230;12.856;2022-12-11T12:09:43;100184.16;;;27.96
15544;BMP180;7873;52.230;12.856;2022-12-11T12:12:17;100174.59;;;28.18
15544;BMP180;7873;52.230;12.856;2022-12-11T12:14:57;100181.84;;;28.42
15544;BMP180;7873;52.230;12.856;2022-12-11T12:17:30;100176.13;;;28.68
15544;BMP180;7873;52.230;12.856;2022-12-11T12:20:10;100179.63;;;28.86
15544;BMP180;7873;52.230;12.856;2022-12-11T12:22:52;100170.44;;;28.87
15544;BMP180;7873;52.230;12.856;2022-12-11T12:25:25;100179.00;;;28.91
15544;BMP180;7873;52.230;12.856;2022-12-11T12:27:59;100177.94;;;28.92
15544;BMP180;7873;52.230;12.856;2022-12-11T12:30:37;100182.75;;;28.90
15544;BMP180;7873;52.230;12.856;2022-12-11T12:33:19;100179.25;;;28.89
15544;BMP180;7873;52.230;12.856;2022-12-11T12:35:57;100177.34;;;28.90
15544;BMP180;7873;52.230;12.856;2022-12-11T12:38:36;100179.41;;;28.88
15544;BMP180;7873;52.230;12.856;2022-12-11T12:41:13;100177.38;;;28.83
15544;BMP180;7873;52.230;12.856;2022-12-11T12:43:53;100168.53;;;28.76
15544;BMP180;7873;52.230;12.856;2022-12-11T12:46:35;100174.16;;;28.75
15544;BMP180;7873;52.230;12.856;2022-12-11T12:49:03;100171.31;;;28.70
15544;BMP180;7873;52.230;12.856;2022-12-11T12:51:34;100174.69;;;28.65
15544;BMP180;7873;52.230;12.856;2022-12-11T12:54:03;100164.16;;;28.57
15544;BMP180;7873;52.230;12.856;2022-12-11T12:56:31;100166.13;;;28.50
15544;BMP180;7873;52.230;12.856;2022-12-11T12:58:58;100165.41;;;28.43
15544;BMP180;7873;52.230;12.856;2022-12-11T13:01:26;100163.56;;;28.37
15544;BMP180;7873;52.230;12.856;2022-12-11T13:03:56;100160.72;;;28.32
15544;BMP180;7873;52.230;12.856;2022-12-11T13:06:36;100162.63;;;28.25
15544;BMP180;7873;52.230;12.856;2022-12-11T13:09:12;100171.63;;;28.19
15544;BMP180;7873;52.230;12.856;2022-12-11T13:11:40;100160.06;;;28.12
15544;BMP180;7873;52.230;12.856;2022-12-11T13:14:22;100157.66;;;28.04
15544;BMP180;7873;52.230;12.856;2022-12-11T13:16:52;100161.47;;;27.97
15544;BMP180;7873;52.230;12.856;2022-12-11T13:19:32;100160.66;;;27.96
15544;BMP180;7873;52.230;12.856;2022-12-11T13:22:20;100161.97;;;27.87
15544;BMP180;7873;52.230;12.856;2022-12-11T13:24:48;100156.34;;;27.89
15544;BMP180;7873;52.230;12.856;2022-12-11T13:27:23;100153.91;;;27.81
15544;BMP180;7873;52.230;12.856;2022-12-11T13:29:50;100156.69;;;27.74
15544;BMP180;7873;52.230;12.856;2022-12-11T13:32:22;100152.75;;;27.70
15544;BMP180;7873;52.230;12.856;2022-12-11T13:34:52;100149.25;;;27.63
15544;BMP180;7873;52.230;12.856;2022-12-11T13:37:24;100147.44;;;27.57
15544;BMP180;7873;52.230;12.856;2022-12-11T13:39:53;100145.53;;;27.58
15544;BMP180;7873;52.230;12.856;2022-12-11T13:42:23;100150.84;;;27.46
15544;BMP180;7873;52.230;12.856;2022-12-11T13:44:52;100150.28;;;27.38
15544;BMP180;7873;52.230;12.856;2022-12-11T13:47:19;100144.50;;;27.35
15544;BMP180;7873;52.230;12.856;2022-12-11T13:49:51;100143.47;;;27.29
15544;BMP180;7873;52.230;12.856;2022-12-11T13:52:23;100143.16;;;27.19
15544;BMP180;7873;52.230;12.856;2022-12-11T13:54:52;100156.09;;;27.04
15544;BMP180;7873;52.230;12.856;2022-12-11T13:57:21;100145.78;;;26.88
15544;BMP180;7873;52.230;12.856;2022-12-11T13:59:51;100147.28;;;26.78
15544;BMP180;7873;52.230;12.856;2022-12-11T14:02:20;100142.75;;;26.72
15544;BMP180;7873;52.230;12.856;2022-12-11T14:04:51;100141.72;;;26.66
15544;BMP180;7873;52.230;12.856;2022-12-11T14:07:25;100148.44;;;26.44
15544;BMP180;7873;52.230;12.856;2022-12-11T14:09:55;100149.81;;;26.03
15544;BMP180;7873;52.230;12.856;2022-12-11T14:12:24;100152.31;;;25.78
15544;BMP180;7873;52.230;12.856;2022-12-11T14:14:53;100150.22;;;25.74
15544;BMP180;7873;52.230;12.856;2022-12-11T14:17:24;100151.88;;;25.62